Time;durP1;ratioP1;P1;durP2;ratioP2;P2;SDS_P1;SDS_P2;PMS_P1;PMS_P2;Temp;Humidity;BMP_temperature;BMP_pressure;BME280_temperature;BME280_humidity;BME280_pressure;Samples;Min_cycle;Max_cycle;Signal;HPM_P1;HPM_P2
2023/06/23 00:00:25;;;;;;;;;15.00;11.00;;;;;;;;119882;1184;25597;-57
2023/06/23 00:03:13;;;;;;;;;7.00;7.00;;;;;;;;119884;1192;25431;-57
2023/06/23 00:05:41;;;;;;;;;9.00;9.00;;;;;;;;119866;1192;25649;-58
2023/06/23 00:08:10;;;;;;;;;8.33;7.33;;;;;;;;119873;1192;26024;-57
2023/06/23 00:10:38;;;;;;;;;14.00;12.00;;;;;;;;119686;1189;24838;-57
2023/06/23 00:13:08;;;;;;;;;10.00;10.00;;;;;;;;119679;1185;24990;-58
2023/06/23 00:15:36;;;;;;;;;8.00;8.00;;;;;;;;119689;1193;24932;-57
2023/06/23 00:18:05;;;;;;;;;10.00;8.00;;;;;;;;119690;1185;25546;-57
2023/06/23 00:20:33;;;;;;;;;11.50;10.00;;;;;;;;119519;1186;24776;-58
2023/06/23 00:23:01;;;;;;;;;10.00;9.00;;;;;;;;119688;1193;25256;-57
2023/06/23 00:25:30;;;;;;;;;8.33;7.00;;;;;;;;119684;1193;25035;-57
2023/06/23 00:27:59;;;;;;;;;9.33;8.33;;;;;;;;119723;1185;25027;-57
2023/06/23 00:30:28;;;;;;;;;10.00;10.00;;;;;;;;119684;1193;24964;-57
2023/06/23 00:32:56;;;;;;;;;11.00;10.33;;;;;;;;119685;1193;25699;-57
2023/06/23 00:35:24;;;;;;;;;10.00;9.00;;;;;;;;119718;1185;25529;-57
2023/06/23 00:37:53;;;;;;;;;9.67;8.67;;;;;;;;119683;1193;25626;-57
2023/06/23 00:40:24;;;;;;;;;10.50;10.50;;;;;;;;119678;1193;24697;-57
2023/06/23 00:42:55;;;;;;;;;10.75;9.00;;;;;;;;119695;1193;25664;-57
2023/06/23 00:45:23;;;;;;;;;13.67;12.33;;;;;;;;119708;1193;25094;-57
2023/06/23 00:47:52;;;;;;;;;13.67;13.67;;;;;;;;119658;1193;24987;-57
2023/06/23 00:50:24;;;;;;;;;15.50;14.00;;;;;;;;119448;1193;25598;-57
2023/06/23 00:52:53;;;;;;;;;10.50;9.00;;;;;;;;119703;1192;25319;-57
2023/06/23 00:55:28;;;;;;;;;16.50;11.50;;;;;;;;119706;1193;25325;-57
2023/06/23 00:57:58;;;;;;;;;11.00;10.00;;;;;;;;119709;1192;25615;-58
2023/06/23 01:00:27;;;;;;;;;12.50;11.00;;;;;;;;119678;1185;25796;-58
2023/06/23 01:03:01;;;;;;;;;10.75;10.25;;;;;;;;119486;1193;24901;-58
2023/06/23 01:05:36;;;;;;;;;15.00;11.00;;;;;;;;119457;1193;25020;-58
2023/06/23 01:08:15;;;;;;;;;11.50;10.00;;;;;;;;119689;1193;24719;-58
2023/06/23 01:10:49;;;;;;;;;10.50;10.00;;;;;;;;119684;1184;24949;-57
2023/06/23 01:13:38;;;;;;;;;11.00;10.50;;;;;;;;119436;1185;24847;-57
2023/06/23 01:16:11;;;;;;;;;15.33;11.00;;;;;;;;119451;1193;25046;-57
2023/06/23 01:18:49;;;;;;;;;14.67;13.67;;;;;;;;119721;1192;25341;-58
2023/06/23 01:21:27;;;;;;;;;13.00;13.00;;;;;;;;119585;1192;25831;-58
2023/06/23 01:24:11;;;;;;;;;11.50;10.00;;;;;;;;119779;1184;25267;-58
2023/06/23 01:26:57;;;;;;;;;12.50;9.50;;;;;;;;119601;1189;24859;-59
2023/06/23 01:29:30;;;;;;;;;12.00;12.00;;;;;;;;119589;1193;25357;-58
2023/06/23 01:32:16;;;;;;;;;8.00;7.50;;;;;;;;119565;1193;25575;-59
2023/06/23 01:34:46;;;;;;;;;10.00;9.50;;;;;;;;119789;1188;24918;-58
2023/06/23 01:37:21;;;;;;;;;10.50;8.75;;;;;;;;119482;1193;25035;-58
2023/06/23 01:39:56;;;;;;;;;13.00;10.50;;;;;;;;119782;1189;25051;-58
2023/06/23 01:42:30;;;;;;;;;12.00;11.25;;;;;;;;119640;1189;25816;-58
2023/06/23 01:45:01;;;;;;;;;11.00;11.00;;;;;;;;119625;1186;25034;-58
2023/06/23 01:47:32;;;;;;;;;10.00;9.67;;;;;;;;119570;1193;24825;-58
2023/06/23 01:50:09;;;;;;;;;11.00;11.00;;;;;;;;119539;1189;25025;-59
2023/06/23 01:52:38;;;;;;;;;11.25;11.25;;;;;;;;119416;1194;24933;-58
2023/06/23 01:55:07;;;;;;;;;13.67;12.00;;;;;;;;119409;1194;25177;-58
2023/06/23 01:57:37;;;;;;;;;15.00;11.00;;;;;;;;119425;1194;25139;-59
2023/06/23 02:00:16;;;;;;;;;11.00;11.00;;;;;;;;119412;1194;24987;-58
2023/06/23 02:02:46;;;;;;;;;9.67;9.33;;;;;;;;119367;1194;24928;-59
2023/06/23 02:05:16;;;;;;;;;7.00;6.67;;;;;;;;119407;1194;25392;-58
2023/06/23 02:07:47;;;;;;;;;14.50;12.00;;;;;;;;119397;1193;25703;-58
2023/06/23 02:10:16;;;;;;;;;12.33;12.33;;;;;;;;119446;1194;24792;-58
2023/06/23 02:12:45;;;;;;;;;12.00;10.25;;;;;;;;119391;1194;25665;-58
2023/06/23 02:15:14;;;;;;;;;8.50;8.50;;;;;;;;119426;1186;25024;-58
2023/06/23 02:17:43;;;;;;;;;10.00;8.00;;;;;;;;119409;1186;25342;-59
2023/06/23 02:20:16;;;;;;;;;12.33;11.67;;;;;;;;119428;1187;25438;-58
2023/06/23 02:22:49;;;;;;;;;10.50;9.00;;;;;;;;119387;1194;25362;-58
2023/06/23 02:25:17;;;;;;;;;13.75;11.00;;;;;;;;119624;1193;25487;-58
2023/06/23 02:27:47;;;;;;;;;11.50;10.25;;;;;;;;119458;1186;24857;-58
2023/06/23 02:30:17;;;;;;;;;12.50;12.00;;;;;;;;119457;1193;24939;-58
2023/06/23 02:32:47;;;;;;;;;14.33;12.67;;;;;;;;119452;1193;24954;-58
2023/06/23 02:35:15;;;;;;;;;11.33;10.33;;;;;;;;119456;1193;25245;-58
2023/06/23 02:37:49;;;;;;;;;16.00;14.00;;;;;;;;119454;1185;25427;-58
2023/06/23 02:40:19;;;;;;;;;12.50;10.50;;;;;;;;119404;1193;25000;-59
2023/06/23 02:42:53;;;;;;;;;11.50;9.00;;;;;;;;119398;1193;24862;-58
2023/06/23 02:45:29;;;;;;;;;14.00;12.00;;;;;;;;119445;1184;25379;-58
2023/06/23 02:47:58;;;;;;;;;11.00;9.75;;;;;;;;119405;1194;25255;-57
2023/06/23 02:50:32;;;;;;;;;12.00;11.50;;;;;;;;119386;1194;25008;-58
2023/06/23 02:53:07;;;;;;;;;15.00;15.00;;;;;;;;119398;1185;25152;-58
2023/06/23 02:55:39;;;;;;;;;12.00;12.00;;;;;;;;119433;1186;25187;-58
2023/06/23 02:58:09;;;;;;;;;14.50;11.50;;;;;;;;119412;1194;25335;-58
2023/06/23 03:00:38;;;;;;;;;12.00;10.00;;;;;;;;119386;1185;25755;-57
2023/06/23 03:03:12;;;;;;;;;9.25;8.50;;;;;;;;119412;1194;24987;-58
2023/06/23 03:05:41;;;;;;;;;17.00;12.25;;;;;;;;119415;1185;25431;-58
2023/06/23 03:08:10;;;;;;;;;12.00;11.33;;;;;;;;119375;1194;25494;-58
2023/06/23 03:10:38;;;;;;;;;15.67;14.00;;;;;;;;119687;1193;25668;-58
2023/06/23 03:13:08;;;;;;;;;15.67;14.33;;;;;;;;119767;1185;29440;-58
2023/06/23 03:15:36;;;;;;;;;14.50;11.00;;;;;;;;119972;1183;25533;-58
2023/06/23 03:18:08;;;;;;;;;10.67;10.00;;;;;;;;119867;1192;25562;-58
2023/06/23 03:20:49;;;;;;;;;15.50;13.50;;;;;;;;119497;1192;25019;-58
2023/06/23 03:23:18;;;;;;;;;13.50;13.50;;;;;;;;119896;1192;25294;-58
2023/06/23 03:25:48;;;;;;;;;15.00;13.00;;;;;;;;119485;1192;25177;-59
2023/06/23 03:28:25;;;;;;;;;12.67;12.33;;;;;;;;119474;1192;24988;-58
2023/06/23 03:30:59;;;;;;;;;15.00;12.50;;;;;;;;119718;1190;24969;-58
2023/06/23 03:33:33;;;;;;;;;10.00;10.00;;;;;;;;119688;1193;25162;-58
2023/06/23 03:36:08;;;;;;;;;16.00;15.00;;;;;;;;119470;1193;25132;-58
2023/06/23 03:38:44;;;;;;;;;12.00;11.33;;;;;;;;119450;1193;25237;-58
2023/06/23 03:41:13;;;;;;;;;15.00;11.00;;;;;;;;119477;1193;25276;-57
2023/06/23 03:43:51;;;;;;;;;15.00;13.50;;;;;;;;119445;1193;25749;-58
2023/06/23 03:46:23;;;;;;;;;16.00;12.50;;;;;;;;119463;1193;24864;-58
2023/06/23 03:48:58;;;;;;;;;14.00;12.67;;;;;;;;119673;1193;25426;-58
2023/06/23 03:51:28;;;;;;;;;15.00;12.00;;;;;;;;119716;1193;25448;-58
2023/06/23 03:53:59;;;;;;;;;11.75;11.25;;;;;;;;119458;1193;25640;-58
2023/06/23 03:56:30;;;;;;;;;15.50;14.50;;;;;;;;119482;1193;24831;-58
2023/06/23 03:58:59;;;;;;;;;16.50;14.00;;;;;;;;119681;1193;25596;-58
2023/06/23 04:01:29;;;;;;;;;16.00;12.00;;;;;;;;119451;1190;24811;-58
2023/06/23 04:03:58;;;;;;;;;18.50;14.00;;;;;;;;119457;1193;25508;-58
2023/06/23 04:06:28;;;;;;;;;15.00;11.00;;;;;;;;119462;1193;24862;-58
2023/06/23 04:08:58;;;;;;;;;16.00;13.00;;;;;;;;119454;1193;25258;-58
2023/06/23 04:11:27;;;;;;;;;15.33;12.67;;;;;;;;119449;1185;25515;-58
2023/06/23 04:13:56;;;;;;;;;12.67;12.67;;;;;;;;119461;1193;25219;-58
2023/06/23 04:16:25;;;;;;;;;15.75;14.50;;;;;;;;119676;1192;25137;-58
2023/06/23 04:18:55;;;;;;;;;16.50;15.00;;;;;;;;119491;1192;25260;-58
2023/06/23 04:21:24;;;;;;;;;16.00;16.00;;;;;;;;119678;1183;25285;-58
2023/06/23 04:23:53;;;;;;;;;16.67;14.00;;;;;;;;119481;1192;25401;-58
2023/06/23 04:26:22;;;;;;;;;17.00;17.00;;;;;;;;119869;1183;25404;-58
2023/06/23 04:28:52;;;;;;;;;18.50;15.00;;;;;;;;119709;1192;25311;-58
2023/06/23 04:31:21;;;;;;;;;14.00;12.00;;;;;;;;119493;1192;25678;-58
2023/06/23 04:33:50;;;;;;;;;11.00;10.67;;;;;;;;119476;1192;25562;-58
2023/06/23 04:36:20;;;;;;;;;15.50;12.25;;;;;;;;119446;1193;25709;-59
2023/06/23 04:38:53;;;;;;;;;15.00;14.00;;;;;;;;119524;1192;25461;-59
2023/06/23 04:41:23;;;;;;;;;21.00;14.00;;;;;;;;119503;1192;25398;-59
2023/06/23 04:43:53;;;;;;;;;18.67;15.00;;;;;;;;119867;1192;25217;-59
2023/06/23 04:46:27;;;;;;;;;15.67;15.67;;;;;;;;119503;1192;25138;-59
2023/06/23 04:49:02;;;;;;;;;14.67;14.67;;;;;;;;119501;1192;25394;-59
2023/06/23 04:51:35;;;;;;;;;18.00;16.00;;;;;;;;119482;1192;24987;-55
2023/06/23 04:54:10;;;;;;;;;15.00;14.67;;;;;;;;119443;1192;25725;-56
2023/06/23 04:56:40;;;;;;;;;16.25;15.25;;;;;;;;119496;1185;25227;-56
2023/06/23 04:59:09;;;;;;;;;18.25;17.00;;;;;;;;119473;1193;25158;-56
2023/06/23 05:01:38;;;;;;;;;18.25;17.00;;;;;;;;119472;1192;25275;-56
2023/06/23 05:04:08;;;;;;;;;19.00;16.00;;;;;;;;119480;1192;26423;-55
2023/06/23 05:06:38;;;;;;;;;16.00;15.00;;;;;;;;119471;1185;25560;-57
2023/06/23 05:09:06;;;;;;;;;17.67;15.67;;;;;;;;119688;1193;25338;-57
2023/06/23 05:11:35;;;;;;;;;20.67;18.00;;;;;;;;119460;1193;25073;-56
2023/06/23 05:14:05;;;;;;;;;20.25;17.50;;;;;;;;119444;1193;25177;-56
2023/06/23 05:16:35;;;;;;;;;20.00;16.00;;;;;;;;119472;1193;24968;-55
2023/06/23 05:19:06;;;;;;;;;19.00;17.00;;;;;;;;119485;1192;25380;-56
2023/06/23 05:21:35;;;;;;;;;17.00;14.50;;;;;;;;119465;1192;26373;-56
2023/06/23 05:24:07;;;;;;;;;17.33;15.00;;;;;;;;119842;1192;25051;-56
2023/06/23 05:26:35;;;;;;;;;18.25;16.25;;;;;;;;119495;1185;24883;-56
2023/06/23 05:29:07;;;;;;;;;20.00;16.00;;;;;;;;119523;1192;24777;-56
2023/06/23 05:31:39;;;;;;;;;12.25;12.25;;;;;;;;119508;1192;25565;-56
2023/06/23 05:34:10;;;;;;;;;19.00;19.00;;;;;;;;119873;1192;24869;-54
2023/06/23 05:36:39;;;;;;;;;21.33;19.00;;;;;;;;119481;1192;25761;-55
2023/06/23 05:39:09;;;;;;;;;17.00;17.00;;;;;;;;119511;1192;25308;-56
2023/06/23 05:41:37;;;;;;;;;18.50;18.50;;;;;;;;119866;1192;25245;-55
2023/06/23 05:44:05;;;;;;;;;20.75;17.75;;;;;;;;119485;1192;24883;-55
2023/06/23 05:46:35;;;;;;;;;22.50;19.00;;;;;;;;119800;1189;25282;-56
2023/06/23 05:49:12;;;;;;;;;19.67;16.67;;;;;;;;119492;1193;25367;-55
2023/06/23 05:51:41;;;;;;;;;20.00;17.00;;;;;;;;119519;1192;25528;-56
2023/06/23 05:54:11;;;;;;;;;18.00;16.00;;;;;;;;119470;1192;26025;-56
2023/06/23 05:56:45;;;;;;;;;15.00;15.00;;;;;;;;119511;1186;24809;-57
2023/06/23 05:59:24;;;;;;;;;19.00;18.00;;;;;;;;119865;1192;25662;-56
2023/06/23 06:01:58;;;;;;;;;15.50;11.50;;;;;;;;119460;1192;25113;-57
2023/06/23 06:04:32;;;;;;;;;18.00;17.50;;;;;;;;119491;1192;24919;-56
2023/06/23 06:07:01;;;;;;;;;14.75;13.25;;;;;;;;119619;1186;25441;-56
2023/06/23 06:09:31;;;;;;;;;18.50;17.50;;;;;;;;119659;1181;24902;-57
2023/06/23 06:11:59;;;;;;;;;22.00;21.67;;;;;;;;119728;1188;25046;-56
2023/06/23 06:14:30;;;;;;;;;19.00;17.00;;;;;;;;119913;1180;24720;-57
2023/06/23 06:16:59;;;;;;;;;22.67;19.00;;;;;;;;119663;1186;24914;-57
2023/06/23 06:19:30;;;;;;;;;16.50;16.00;;;;;;;;119887;1192;24962;-57
2023/06/23 06:22:00;;;;;;;;;14.00;12.67;;;;;;;;119936;1179;24952;-57
2023/06/23 06:24:29;;;;;;;;;17.25;14.75;;;;;;;;119621;1192;24799;-57
2023/06/23 06:27:00;;;;;;;;;18.00;13.50;;;;;;;;119627;1188;25167;-56
2023/06/23 06:29:29;;;;;;;;;17.50;13.50;;;;;;;;119617;1192;24916;-57
2023/06/23 06:31:58;;;;;;;;;18.00;16.00;;;;;;;;119619;1189;24950;-57
2023/06/23 06:34:26;;;;;;;;;13.25;11.75;;;;;;;;119901;1188;25147;-57
2023/06/23 06:36:55;;;;;;;;;20.00;17.00;;;;;;;;119631;1189;24841;-57
2023/06/23 06:39:24;;;;;;;;;15.67;15.00;;;;;;;;119658;1189;25473;-57
2023/06/23 06:41:53;;;;;;;;;21.50;16.00;;;;;;;;119583;1189;25539;-56
2023/06/23 06:44:21;;;;;;;;;17.00;15.50;;;;;;;;119586;1192;25060;-57
2023/06/23 06:46:50;;;;;;;;;17.00;15.00;;;;;;;;119909;1188;25330;-57
2023/06/23 06:49:22;;;;;;;;;18.50;15.50;;;;;;;;119498;1179;25666;-58
2023/06/23 06:51:52;;;;;;;;;19.25;17.50;;;;;;;;119669;1192;25296;-57
2023/06/23 06:54:20;;;;;;;;;18.75;17.00;;;;;;;;119901;1188;25004;-57
2023/06/23 06:56:48;;;;;;;;;21.00;18.00;;;;;;;;119565;1186;25449;-57
2023/06/23 06:59:16;;;;;;;;;19.00;16.00;;;;;;;;119878;1192;24841;-57
2023/06/23 07:01:45;;;;;;;;;20.50;18.00;;;;;;;;119695;1189;24833;-57
2023/06/23 07:04:14;;;;;;;;;18.00;16.00;;;;;;;;119635;1183;25174;-57
2023/06/23 07:06:42;;;;;;;;;19.75;18.00;;;;;;;;119517;1192;25495;-57
2023/06/23 07:09:10;;;;;;;;;22.33;18.67;;;;;;;;119891;1188;24853;-57
2023/06/23 07:11:38;;;;;;;;;17.50;16.50;;;;;;;;119932;1183;25424;-57
2023/06/23 07:14:07;;;;;;;;;22.00;17.00;;;;;;;;119860;1192;24864;-57
2023/06/23 07:16:35;;;;;;;;;21.75;16.75;;;;;;;;119845;1192;25028;-57
2023/06/23 07:19:03;;;;;;;;;19.50;18.00;;;;;;;;119875;1192;24727;-57
2023/06/23 07:21:32;;;;;;;;;12.00;10.67;;;;;;;;119883;1192;25705;-59
2023/06/23 07:24:01;;;;;;;;;18.00;14.67;;;;;;;;119609;1189;25359;-60
2023/06/23 07:26:29;;;;;;;;;13.50;10.00;;;;;;;;119864;1192;24988;-60
2023/06/23 07:28:57;;;;;;;;;21.33;17.33;;;;;;;;119881;1188;24964;-60
2023/06/23 07:31:25;;;;;;;;;13.00;12.00;;;;;;;;119877;1183;25512;-60
2023/06/23 07:33:54;;;;;;;;;15.33;13.33;;;;;;;;119911;1192;25483;-60
2023/06/23 07:36:22;;;;;;;;;16.00;16.00;;;;;;;;119908;1183;24831;-60
2023/06/23 07:38:50;;;;;;;;;12.67;9.67;;;;;;;;119496;1186;24942;-58
2023/06/23 07:41:19;;;;;;;;;15.25;14.25;;;;;;;;119899;1192;25206;-58
2023/06/23 07:43:48;;;;;;;;;17.50;15.00;;;;;;;;119883;1192;24916;-57
2023/06/23 07:46:16;;;;;;;;;17.00;15.50;;;;;;;;119849;1180;24820;-56
2023/06/23 07:48:45;;;;;;;;;17.00;12.33;;;;;;;;119907;1192;25115;-56
2023/06/23 07:51:13;;;;;;;;;20.25;15.75;;;;;;;;119705;1192;25237;-58
2023/06/23 07:53:41;;;;;;;;;12.33;11.00;;;;;;;;119923;1183;24855;-58
2023/06/23 07:56:21;;;;;;;;;23.50;14.00;;;;;;;;119874;1183;25341;-60
2023/06/23 07:58:50;;;;;;;;;17.33;14.67;;;;;;;;119882;1192;25637;-60
2023/06/23 08:01:18;;;;;;;;;19.67;11.67;;;;;;;;119876;1192;25566;-60
2023/06/23 08:03:46;;;;;;;;;14.50;13.50;;;;;;;;119870;1184;24713;-62
2023/06/23 08:06:18;;;;;;;;;10.50;10.50;;;;;;;;119868;1192;25009;-63
2023/06/23 08:08:47;;;;;;;;;11.67;11.33;;;;;;;;119864;1192;25695;-62
2023/06/23 08:11:15;;;;;;;;;12.00;10.00;;;;;;;;119516;1185;24683;-62
2023/06/23 08:13:44;;;;;;;;;18.00;14.50;;;;;;;;119486;1192;24927;-62
2023/06/23 08:16:13;;;;;;;;;16.50;15.50;;;;;;;;119617;1185;25535;-62
2023/06/23 08:18:41;;;;;;;;;19.00;13.67;;;;;;;;119877;1192;25180;-62
2023/06/23 08:21:10;;;;;;;;;15.67;15.00;;;;;;;;119874;1189;24789;-62
2023/06/23 08:23:40;;;;;;;;;18.50;15.50;;;;;;;;119909;1192;25388;-62
2023/06/23 08:26:10;;;;;;;;;15.00;14.50;;;;;;;;119718;1192;25137;-62
2023/06/23 08:28:38;;;;;;;;;22.67;17.00;;;;;;;;119908;1192;25480;-62
2023/06/23 08:31:07;;;;;;;;;12.33;12.00;;;;;;;;119649;1186;25635;-62
2023/06/23 08:33:35;;;;;;;;;14.00;10.33;;;;;;;;119864;1192;25420;-60
2023/06/23 08:36:04;;;;;;;;;19.50;16.00;;;;;;;;119868;1183;25222;-63
2023/06/23 08:38:32;;;;;;;;;16.25;14.25;;;;;;;;119480;1192;25624;-61
2023/06/23 08:41:01;;;;;;;;;15.67;13.67;;;;;;;;119452;1192;25481;-60
2023/06/23 08:43:30;;;;;;;;;11.50;11.50;;;;;;;;119520;1183;25079;-60
2023/06/23 08:45:59;;;;;;;;;19.00;16.50;;;;;;;;119474;1192;25562;-60
2023/06/23 08:48:29;;;;;;;;;18.00;16.00;;;;;;;;119509;1185;25248;-60
2023/06/23 08:51:00;;;;;;;;;15.50;14.00;;;;;;;;119486;1192;24854;-60
2023/06/23 08:53:29;;;;;;;;;17.00;14.00;;;;;;;;119884;1192;24879;-60
2023/06/23 08:55:58;;;;;;;;;16.00;15.00;;;;;;;;119512;1185;24776;-60
2023/06/23 08:58:26;;;;;;;;;17.33;14.67;;;;;;;;119496;1192;24995;-60
2023/06/23 09:00:54;;;;;;;;;14.50;14.00;;;;;;;;119868;1192;24985;-60
2023/06/23 09:03:23;;;;;;;;;18.00;16.00;;;;;;;;119871;1192;25103;-61
2023/06/23 09:05:52;;;;;;;;;17.75;13.75;;;;;;;;119489;1192;25478;-61
2023/06/23 09:08:20;;;;;;;;;15.67;14.67;;;;;;;;119477;1192;24907;-62
2023/06/23 09:10:49;;;;;;;;;11.50;11.50;;;;;;;;119465;1192;24867;-61
2023/06/23 09:13:24;;;;;;;;;18.00;14.00;;;;;;;;119483;1192;24831;-61
2023/06/23 09:15:52;;;;;;;;;18.00;16.50;;;;;;;;119510;1192;24723;-60
2023/06/23 09:18:35;;;;;;;;;16.33;15.67;;;;;;;;119542;1184;24838;-61
2023/06/23 09:21:03;;;;;;;;;13.50;11.50;;;;;;;;119513;1192;25010;-59
2023/06/23 09:23:33;;;;;;;;;12.50;12.50;;;;;;;;119854;1179;25912;-59
2023/06/23 09:26:03;;;;;;;;;17.00;15.00;;;;;;;;119873;1183;25269;-59
2023/06/23 09:28:36;;;;;;;;;17.67;13.00;;;;;;;;119499;1192;25714;-59
2023/06/23 09:31:13;;;;;;;;;15.50;13.50;;;;;;;;119874;1192;24957;-59
2023/06/23 09:33:48;;;;;;;;;14.67;12.00;;;;;;;;119493;1192;25606;-59
2023/06/23 09:36:16;;;;;;;;;18.00;12.00;;;;;;;;119873;1192;25210;-60
2023/06/23 09:38:45;;;;;;;;;16.00;15.00;;;;;;;;119464;1180;25600;-59
2023/06/23 09:41:15;;;;;;;;;13.00;12.00;;;;;;;;119860;1184;25775;-59
2023/06/23 09:43:45;;;;;;;;;15.00;12.50;;;;;;;;119462;1185;25294;-59
2023/06/23 09:46:15;;;;;;;;;15.00;12.00;;;;;;;;119876;1192;25540;-60
2023/06/23 09:48:45;;;;;;;;;16.00;13.50;;;;;;;;119493;1184;24789;-60
2023/06/23 09:51:13;;;;;;;;;16.50;16.00;;;;;;;;119513;1192;25062;-60
2023/06/23 09:53:42;;;;;;;;;15.00;13.00;;;;;;;;119844;1192;25270;-60
2023/06/23 09:56:18;;;;;;;;;22.00;17.00;;;;;;;;119508;1185;24983;-59
2023/06/23 09:58:48;;;;;;;;;17.00;13.00;;;;;;;;119486;1183;24736;-61
2023/06/23 10:01:18;;;;;;;;;14.00;13.00;;;;;;;;119487;1192;25158;-60
2023/06/23 10:03:54;;;;;;;;;15.00;11.50;;;;;;;;119477;1192;25577;-61
2023/06/23 10:06:35;;;;;;;;;21.00;15.75;;;;;;;;119856;1192;24700;-60
2023/06/23 10:09:07;;;;;;;;;16.00;14.25;;;;;;;;119528;1192;25283;-62
2023/06/23 10:11:39;;;;;;;;;10.50;10.50;;;;;;;;119490;1192;24686;-61
2023/06/23 10:14:11;;;;;;;;;14.33;11.00;;;;;;;;119490;1192;25375;-61
2023/06/23 10:16:43;;;;;;;;;19.50;14.00;;;;;;;;119493;1185;25025;-61
2023/06/23 10:19:12;;;;;;;;;16.33;13.33;;;;;;;;119469;1192;25680;-61
2023/06/23 10:21:41;;;;;;;;;12.33;12.33;;;;;;;;119483;1192;25080;-65
2023/06/23 10:24:19;;;;;;;;;15.00;10.25;;;;;;;;119470;1185;25368;-65
2023/06/23 10:26:50;;;;;;;;;16.00;14.00;;;;;;;;119486;1192;24917;-66
2023/06/23 10:29:19;;;;;;;;;17.00;11.00;;;;;;;;119866;1192;25112;-66
2023/06/23 10:31:51;;;;;;;;;15.00;14.00;;;;;;;;119476;1192;25539;-65
2023/06/23 10:34:20;;;;;;;;;12.50;12.50;;;;;;;;119501;1192;25546;-70
2023/06/23 10:36:51;;;;;;;;;14.00;13.00;;;;;;;;119870;1192;24850;-71
2023/06/23 10:39:20;;;;;;;;;22.00;13.33;;;;;;;;119492;1185;25141;-69
2023/06/23 10:41:52;;;;;;;;;23.75;14.75;;;;;;;;119494;1183;26026;-66
2023/06/23 10:44:21;;;;;;;;;19.00;13.00;;;;;;;;119502;1184;25070;-65
2023/06/23 10:46:49;;;;;;;;;10.00;9.50;;;;;;;;119492;1192;25365;-66
2023/06/23 10:49:18;;;;;;;;;13.50;10.00;;;;;;;;119486;1185;25582;-66
2023/06/23 10:51:51;;;;;;;;;14.00;11.33;;;;;;;;119504;1185;25547;-66
2023/06/23 10:54:26;;;;;;;;;12.00;11.00;;;;;;;;119479;1192;25608;-66
2023/06/23 10:56:55;;;;;;;;;15.67;12.33;;;;;;;;119500;1192;24911;-66
2023/06/23 10:59:24;;;;;;;;;13.33;11.33;;;;;;;;119474;1192;25008;-65
2023/06/23 11:02:07;;;;;;;;;11.25;11.00;;;;;;;;119485;1192;24766;-66
2023/06/23 11:04:38;;;;;;;;;17.50;14.25;;;;;;;;119859;1192;24668;-66
2023/06/23 11:07:08;;;;;;;;;16.00;12.00;;;;;;;;119645;1189;25541;-65
2023/06/23 11:09:44;;;;;;;;;13.33;12.00;;;;;;;;119877;1192;24762;-66
2023/06/23 11:12:42;;;;;;;;;12.00;12.00;;;;;;;;119901;1183;25007;-66
2023/06/23 11:15:16;;;;;;;;;10.50;9.00;;;;;;;;119887;1192;24746;-65
2023/06/23 11:18:05;;;;;;;;;17.50;13.25;;;;;;;;119910;1183;25233;-65
2023/06/23 11:20:43;;;;;;;;;10.33;9.67;;;;;;;;119887;1192;25048;-65
2023/06/23 11:23:12;;;;;;;;;13.00;9.00;;;;;;;;119493;1192;25233;-65
2023/06/23 11:25:46;;;;;;;;;10.33;10.00;;;;;;;;119531;1186;25585;-65
2023/06/23 11:28:34;;;;;;;;;11.50;9.25;;;;;;;;119898;1192;25046;-64
2023/06/23 11:31:26;;;;;;;;;16.00;12.00;;;;;;;;119506;1192;25672;-65
2023/06/23 11:33:54;;;;;;;;;14.00;12.25;;;;;;;;119880;1192;25392;-65
2023/06/23 11:36:28;;;;;;;;;16.00;12.25;;;;;;;;119875;1192;24857;-65
2023/06/23 11:38:57;;;;;;;;;12.25;11.00;;;;;;;;119904;1192;24716;-64
2023/06/23 11:41:32;;;;;;;;;8.00;7.00;;;;;;;;119516;1192;24694;-65
2023/06/23 11:44:03;;;;;;;;;14.00;11.50;;;;;;;;119480;1192;25664;-65
2023/06/23 11:46:32;;;;;;;;;10.00;8.00;;;;;;;;119727;1189;25003;-65
2023/06/23 11:49:11;;;;;;;;;10.00;10.00;;;;;;;;119903;1183;25009;-64
2023/06/23 11:51:40;;;;;;;;;13.00;12.25;;;;;;;;119722;1192;24936;-65
2023/06/23 11:54:08;;;;;;;;;15.00;12.00;;;;;;;;119515;1192;24876;-65
2023/06/23 11:56:40;;;;;;;;;8.67;8.67;;;;;;;;119898;1192;24742;-65
2023/06/23 11:59:10;;;;;;;;;14.67;11.33;;;;;;;;119909;1192;25618;-64
2023/06/23 12:01:38;;;;;;;;;9.50;8.00;;;;;;;;119911;1192;24797;-64
2023/06/23 12:04:07;;;;;;;;;14.50;11.00;;;;;;;;119898;1183;25022;-65
2023/06/23 12:06:38;;;;;;;;;13.67;11.67;;;;;;;;119727;1192;24696;-65
2023/06/23 12:09:07;;;;;;;;;10.75;10.25;;;;;;;;119910;1192;25624;-65
2023/06/23 12:11:37;;;;;;;;;10.33;9.67;;;;;;;;119916;1183;24786;-67
2023/06/23 12:14:09;;;;;;;;;11.00;10.00;;;;;;;;119715;1192;25140;-68
2023/06/23 12:16:37;;;;;;;;;13.00;9.33;;;;;;;;119721;1192;24920;-65
2023/06/23 12:19:06;;;;;;;;;10.75;10.25;;;;;;;;119911;1192;25346;-67
2023/06/23 12:21:39;;;;;;;;;11.00;10.00;;;;;;;;119455;1186;24763;-67
2023/06/23 12:24:10;;;;;;;;;10.00;8.00;;;;;;;;119485;1192;25004;-67
2023/06/23 12:26:41;;;;;;;;;10.00;9.50;;;;;;;;119873;1192;25215;-67
2023/06/23 12:29:11;;;;;;;;;15.00;11.00;;;;;;;;119491;1192;25233;-67
2023/06/23 12:31:39;;;;;;;;;13.00;9.00;;;;;;;;119481;1192;25523;-67
2023/06/23 12:34:10;;;;;;;;;11.00;10.00;;;;;;;;119898;1183;24697;-67
2023/06/23 12:36:39;;;;;;;;;10.67;10.67;;;;;;;;119488;1185;25196;-68
2023/06/23 12:39:12;;;;;;;;;11.00;8.00;;;;;;;;119466;1185;25238;-68
2023/06/23 12:41:41;;;;;;;;;11.00;8.00;;;;;;;;119853;1180;25093;-68
2023/06/23 12:44:11;;;;;;;;;9.75;9.75;;;;;;;;119510;1185;24906;-67
2023/06/23 12:46:41;;;;;;;;;14.75;10.25;;;;;;;;119475;1192;25105;-69
2023/06/23 12:49:12;;;;;;;;;15.50;11.50;;;;;;;;119487;1186;25369;-69
2023/06/23 12:51:40;;;;;;;;;16.00;13.00;;;;;;;;119856;1192;24924;-65
2023/06/23 12:54:08;;;;;;;;;10.25;10.25;;;;;;;;119878;1192;25432;-65
2023/06/23 12:56:37;;;;;;;;;11.50;11.00;;;;;;;;119460;1192;25233;-65
2023/06/23 12:59:05;;;;;;;;;14.33;12.00;;;;;;;;119851;1191;25661;-65
2023/06/23 13:01:33;;;;;;;;;16.67;13.33;;;;;;;;119880;1192;25201;-65
2023/06/23 13:04:02;;;;;;;;;16.00;13.00;;;;;;;;119862;1192;25354;-65
2023/06/23 13:06:30;;;;;;;;;14.00;13.50;;;;;;;;119872;1192;24841;-64
2023/06/23 13:08:59;;;;;;;;;14.00;11.50;;;;;;;;119733;1192;25088;-65
2023/06/23 13:11:28;;;;;;;;;14.00;12.50;;;;;;;;119874;1192;25446;-64
2023/06/23 13:13:56;;;;;;;;;15.33;11.67;;;;;;;;119873;1192;24840;-65
2023/06/23 13:16:24;;;;;;;;;12.67;12.00;;;;;;;;119876;1192;24937;-64
2023/06/23 13:18:53;;;;;;;;;15.00;12.50;;;;;;;;119840;1192;25322;-64
2023/06/23 13:21:21;;;;;;;;;14.75;13.50;;;;;;;;119545;1184;24800;-63
2023/06/23 13:23:50;;;;;;;;;16.50;13.00;;;;;;;;119846;1192;25929;-63
2023/06/23 13:26:18;;;;;;;;;13.67;9.67;;;;;;;;119475;1192;25331;-63
2023/06/23 13:28:46;;;;;;;;;15.33;13.33;;;;;;;;119860;1192;25029;-63
2023/06/23 13:31:15;;;;;;;;;17.00;14.00;;;;;;;;119458;1189;25226;-62
2023/06/23 13:33:44;;;;;;;;;13.50;10.00;;;;;;;;119881;1192;25165;-62
2023/06/23 13:36:13;;;;;;;;;13.67;11.00;;;;;;;;119876;1179;25012;-62
2023/06/23 13:38:42;;;;;;;;;19.00;15.75;;;;;;;;119859;1183;25639;-62
2023/06/23 13:41:10;;;;;;;;;12.00;11.50;;;;;;;;119852;1192;25372;-62
2023/06/23 13:43:39;;;;;;;;;9.50;9.50;;;;;;;;119828;1192;25261;-62
2023/06/23 13:46:09;;;;;;;;;12.00;10.67;;;;;;;;119501;1192;25520;-62
2023/06/23 13:48:38;;;;;;;;;17.00;15.00;;;;;;;;119862;1192;25260;-62
2023/06/23 13:51:06;;;;;;;;;11.75;10.25;;;;;;;;119856;1192;25735;-63
2023/06/23 13:53:38;;;;;;;;;13.00;11.50;;;;;;;;119846;1192;25376;-63
2023/06/23 13:56:06;;;;;;;;;12.00;12.00;;;;;;;;119483;1192;25022;-63
2023/06/23 13:58:35;;;;;;;;;15.00;14.00;;;;;;;;119882;1192;25521;-63
2023/06/23 14:01:04;;;;;;;;;15.00;14.67;;;;;;;;119486;1192;25675;-63
2023/06/23 14:03:32;;;;;;;;;12.00;12.00;;;;;;;;119891;1192;25192;-63
2023/06/23 14:06:03;;;;;;;;;16.50;14.00;;;;;;;;119848;1192;24838;-62
2023/06/23 14:08:33;;;;;;;;;13.00;13.00;;;;;;;;119878;1192;24835;-63
2023/06/23 14:11:02;;;;;;;;;17.67;17.33;;;;;;;;119720;1192;24843;-63
2023/06/23 14:13:30;;;;;;;;;15.00;14.00;;;;;;;;119483;1192;25318;-62
2023/06/23 14:15:59;;;;;;;;;17.33;16.00;;;;;;;;119862;1192;25387;-65
2023/06/23 14:18:31;;;;;;;;;22.00;17.25;;;;;;;;119899;1192;25032;-65
2023/06/23 14:21:00;;;;;;;;;21.00;18.00;;;;;;;;119857;1192;25123;-65
2023/06/23 14:23:28;;;;;;;;;16.50;15.50;;;;;;;;119486;1185;25247;-65
2023/06/23 14:25:57;;;;;;;;;15.00;15.00;;;;;;;;119490;1185;24853;-65